createdAt,value
2023-01-27T00:03:52.983Z,29.23
2023-01-27T00:08:54.629Z,30.13
2023-01-27T00:13:56.318Z,25.52
2023-01-27T00:18:57.929Z,31.48
2023-01-27T00:24:17.813Z,28.77
2023-01-27T00:29:19.474Z,27.50
2023-01-27T00:34:21.075Z,25.75
2023-01-27T00:39:22.704Z,29.75
2023-01-27T00:44:24.388Z,30.80
2023-01-27T00:49:26.020Z,29.63
2023-01-27T00:54:27.652Z,30.30
2023-01-27T00:59:29.248Z,25.43
2023-01-27T01:04:30.834Z,34.03
2023-01-27T01:09:32.443Z,30.67
2023-01-27T01:14:34.030Z,28.73
2023-01-27T01:19:35.738Z,31.60
2023-01-27T01:24:38.006Z,28.60
2023-01-27T01:29:39.599Z,22.37
2023-01-27T01:34:41.283Z,26.63
2023-01-27T01:39:42.934Z,21.85
2023-01-27T01:44:45.701Z,25.23
2023-01-27T01:49:47.902Z,25.48
2023-01-27T01:54:56.204Z,28.08
2023-01-27T02:00:04.565Z,27.92
2023-01-27T02:05:28.168Z,29.23
2023-01-27T02:10:29.836Z,31.42
2023-01-27T02:15:31.821Z,27.40
2023-01-27T02:20:46.633Z,31.05
2023-01-27T02:25:49.009Z,24.77
2023-01-27T02:30:50.862Z,36.75
2023-01-27T02:36:09.862Z,34.45
2023-01-27T02:41:19.705Z,29.73
2023-01-27T02:46:22.062Z,26.63
2023-01-27T02:51:23.827Z,30.03
2023-01-27T02:56:25.896Z,26.13
2023-01-27T03:01:32.622Z,29.98
2023-01-27T03:06:34.971Z,31.55
2023-01-27T03:11:55.256Z,29.73
2023-01-27T03:17:15.776Z,28.58
2023-01-27T03:22:17.756Z,29.03
2023-01-27T03:27:19.560Z,27.58
2023-01-27T03:32:53.774Z,32.17
2023-01-27T03:38:35.820Z,35.35
2023-01-27T03:43:56.322Z,34.58
2023-01-27T03:48:59.937Z,31.83
2023-01-27T03:54:01.587Z,25.53
2023-01-27T03:59:03.246Z,30.38
2023-01-27T04:04:23.119Z,28.30
2023-01-27T04:09:30.174Z,30.15
2023-01-27T04:14:39.291Z,29.83
2023-01-27T04:19:41.710Z,30.93
2023-01-27T04:24:44.149Z,31.73
2023-01-27T04:29:45.748Z,32.58
2023-01-27T04:34:47.356Z,35.65
2023-01-27T04:39:48.973Z,34.50
2023-01-27T04:44:50.573Z,30.37
2023-01-27T04:49:52.164Z,29.77
2023-01-27T04:54:53.798Z,34.97
2023-01-27T04:59:55.407Z,39.95
2023-01-27T05:04:58.075Z,33.30
2023-01-27T05:09:59.681Z,38.60
2023-01-27T05:15:01.369Z,32.83
2023-01-27T05:20:03.104Z,30.23
2023-01-27T05:25:05.174Z,35.75
2023-01-27T05:30:07.765Z,30.50
2023-01-27T05:35:09.563Z,42.27
2023-01-27T05:40:11.867Z,45.65
2023-01-27T05:45:13.763Z,39.63
2023-01-27T05:50:15.915Z,37.92
2023-01-27T05:55:17.587Z,37.53
2023-01-27T06:00:19.790Z,41.97
2023-01-27T06:05:21.395Z,32.78
2023-01-27T06:10:23.030Z,46.90
2023-01-27T06:15:24.742Z,41.55
2023-01-27T06:20:26.355Z,33.77
2023-01-27T06:25:27.990Z,34.63
2023-01-27T06:30:29.629Z,25.55
2023-01-27T06:35:32.536Z,30.50
2023-01-27T06:40:35.235Z,28.50
2023-01-27T06:45:36.852Z,31.80
2023-01-27T06:50:38.548Z,28.45
2023-01-27T06:55:41.813Z,30.30
2023-01-27T07:00:43.645Z,28.77
2023-01-27T07:05:45.379Z,30.70
2023-01-27T07:10:47.133Z,30.80
2023-01-27T07:15:54.096Z,26.10
2023-01-27T07:20:55.744Z,22.33
2023-01-27T07:25:58.748Z,26.47
2023-01-27T07:31:02.697Z,31.33
2023-01-27T07:36:04.486Z,25.83
2023-01-27T07:41:07.129Z,25.13
2023-01-27T07:46:08.901Z,23.30
2023-01-27T07:51:14.546Z,25.13
2023-01-27T07:56:16.249Z,21.05
2023-01-27T08:01:17.908Z,28.23
2023-01-27T08:06:19.564Z,22.08
2023-01-27T08:11:21.451Z,26.60
2023-01-27T08:16:23.120Z,23.00
2023-01-27T08:21:25.434Z,28.77
2023-01-27T08:26:27.676Z,24.23
2023-01-27T08:31:29.316Z,25.52
2023-01-27T08:36:31.029Z,26.70
2023-01-27T08:41:32.621Z,20.77
2023-01-27T08:46:34.759Z,22.73
2023-01-27T08:51:36.380Z,26.25
2023-01-27T08:56:38.154Z,24.43
2023-01-27T09:01:41.710Z,23.85
2023-01-27T09:06:43.401Z,26.10
2023-01-27T09:11:45.475Z,22.70
2023-01-27T09:16:47.103Z,20.10
2023-01-27T09:21:48.722Z,20.90
2023-01-27T09:26:50.585Z,20.47
2023-01-27T09:31:52.271Z,23.90
2023-01-27T09:36:59.953Z,19.33
2023-01-27T09:42:35.539Z,19.67
2023-01-27T09:47:43.711Z,23.23
2023-01-27T09:53:02.588Z,22.55
2023-01-27T09:58:10.946Z,25.90
2023-01-27T10:03:30.915Z,22.45
2023-01-27T10:08:52.141Z,22.80
2023-01-27T10:14:02.853Z,25.95
2023-01-27T10:19:35.223Z,20.33
2023-01-27T10:25:05.449Z,16.35
2023-01-27T10:30:15.796Z,19.00
2023-01-27T10:35:22.513Z,18.10
2023-01-27T10:40:40.065Z,17.50
2023-01-27T10:45:50.462Z,22.00
2023-01-27T10:51:00.843Z,19.73
2023-01-27T10:56:28.741Z,22.73
2023-01-27T11:01:41.197Z,19.70
2023-01-27T11:06:45.721Z,25.30
2023-01-27T11:11:49.315Z,28.13
2023-01-27T11:16:55.421Z,22.60
2023-01-27T11:22:07.787Z,24.90
2023-01-27T11:27:55.180Z,28.05
2023-01-27T11:33:34.851Z,20.10
2023-01-27T11:38:36.813Z,20.50
2023-01-27T11:43:39.280Z,24.07
2023-01-27T11:48:45.935Z,21.88
2023-01-27T11:54:05.158Z,26.90
2023-01-27T11:59:13.595Z,20.40
2023-01-27T12:04:36.600Z,38.80
2023-01-27T12:09:40.113Z,22.53
2023-01-27T12:14:56.992Z,23.67
2023-01-27T12:20:21.734Z,26.92
2023-01-27T12:25:29.697Z,26.00
2023-01-27T12:30:39.133Z,28.45
2023-01-27T12:35:41.565Z,24.33
2023-01-27T12:40:46.029Z,29.83
2023-01-27T12:46:15.804Z,29.95
2023-01-27T12:51:21.996Z,30.63
2023-01-27T12:56:24.616Z,32.47
2023-01-27T13:01:36.386Z,25.92
2023-01-27T13:06:44.019Z,27.20
2023-01-27T13:11:45.686Z,32.05
2023-01-27T13:16:52.984Z,30.17
2023-01-27T13:21:55.337Z,26.87
2023-01-27T13:26:57.976Z,26.38
2023-01-27T13:32:19.689Z,24.08
2023-01-27T13:37:37.723Z,26.00
2023-01-27T13:42:51.834Z,25.77
2023-01-27T13:48:01.750Z,27.73
2023-01-27T13:53:04.434Z,31.37
2023-01-27T13:58:18.441Z,25.60
2023-01-27T14:03:29.385Z,24.87
2023-01-27T14:08:46.868Z,21.40
2023-01-27T14:14:05.036Z,22.53
2023-01-27T14:19:24.215Z,22.73
2023-01-27T14:24:41.332Z,20.33
2023-01-27T14:29:50.751Z,20.43
2023-01-27T14:35:18.434Z,19.20
2023-01-27T14:40:58.533Z,18.25
2023-01-27T14:46:10.945Z,18.87
2023-01-27T14:51:24.040Z,15.45
2023-01-27T14:56:37.907Z,18.73
2023-01-27T15:02:17.415Z,17.27
2023-01-27T15:07:33.391Z,16.27
2023-01-27T15:12:53.033Z,16.65
2023-01-27T15:18:19.465Z,16.80
2023-01-27T15:23:45.566Z,13.07
2023-01-27T15:28:47.581Z,14.43
2023-01-27T15:33:51.881Z,15.20
2023-01-27T15:39:00.235Z,18.58
2023-01-27T15:44:33.007Z,16.40
2023-01-27T15:49:46.712Z,13.70
2023-01-27T15:54:51.695Z,15.00
2023-01-27T15:59:59.237Z,15.73
2023-01-27T16:05:20.714Z,15.90
2023-01-27T16:10:24.911Z,14.38
2023-01-27T16:15:35.310Z,17.03
2023-01-27T16:21:02.048Z,19.67
2023-01-27T16:26:35.219Z,14.70
2023-01-27T16:31:38.285Z,17.25
2023-01-27T16:36:40.395Z,17.85
2023-01-27T16:41:53.493Z,16.23
2023-01-27T16:47:05.022Z,13.75
2023-01-27T16:52:42.488Z,17.35
2023-01-27T16:57:45.750Z,12.90
2023-01-27T17:02:48.206Z,16.70
2023-01-27T17:08:03.461Z,15.73
2023-01-27T17:13:05.109Z,16.15
2023-01-27T17:18:11.354Z,17.33
2023-01-27T17:23:29.160Z,14.57
2023-01-27T17:28:30.846Z,15.65
2023-01-27T17:33:33.536Z,17.83
2023-01-27T17:38:43.213Z,18.13
2023-01-27T17:43:44.837Z,22.50
2023-01-27T17:49:08.379Z,19.77
2023-01-27T17:54:33.417Z,21.60
2023-01-27T17:59:38.607Z,23.40
2023-01-27T18:04:42.198Z,24.75
2023-01-27T18:09:53.834Z,25.45
2023-01-27T18:14:55.743Z,25.60
2023-01-27T18:19:57.386Z,30.15
2023-01-27T18:25:03.772Z,25.53
2023-01-27T18:30:16.079Z,24.65
2023-01-27T18:35:23.315Z,28.90
2023-01-27T18:40:31.104Z,32.05
2023-01-27T18:45:32.741Z,28.58
2023-01-27T18:50:40.811Z,29.47
2023-01-27T18:55:42.692Z,33.13
2023-01-27T19:00:50.701Z,33.15
2023-01-27T19:05:53.287Z,35.10
2023-01-27T19:10:54.962Z,34.17
2023-01-27T19:15:57.648Z,34.57
2023-01-27T19:20:59.863Z,37.88
2023-01-27T19:26:03.632Z,29.55
2023-01-27T19:31:06.750Z,35.73
2023-01-27T19:36:08.358Z,31.15
2023-01-27T19:41:10.922Z,34.78
2023-01-27T19:46:19.730Z,35.65
2023-01-27T19:51:21.504Z,37.22
2023-01-27T19:56:23.571Z,35.50
2023-01-27T20:01:25.711Z,40.88
2023-01-27T20:06:30.957Z,35.80
2023-01-27T20:11:37.830Z,37.80
2023-01-27T20:16:39.761Z,38.47
2023-01-27T20:21:42.765Z,38.10
2023-01-27T20:26:45.078Z,40.60
2023-01-27T20:31:49.588Z,42.63
2023-01-27T20:36:51.203Z,42.92
2023-01-27T20:41:52.800Z,43.55
2023-01-27T20:46:54.571Z,45.40
2023-01-27T20:51:56.910Z,48.60
2023-01-27T20:56:58.541Z,52.38
2023-01-27T21:02:00.246Z,57.53
2023-01-27T21:07:01.865Z,52.58
2023-01-27T21:12:03.720Z,50.03
2023-01-27T21:17:05.723Z,54.58
2023-01-27T21:22:07.329Z,56.83
2023-01-27T21:27:09.154Z,47.58
2023-01-27T21:32:10.794Z,47.70
2023-01-27T21:37:12.396Z,50.20
2023-01-27T21:42:14.560Z,47.72
2023-01-27T21:47:18.781Z,48.10
2023-01-27T21:52:25.137Z,48.78
2023-01-27T21:57:26.916Z,44.05
2023-01-27T22:02:29.584Z,45.88
2023-01-27T22:07:34.368Z,46.15
2023-01-27T22:12:36.107Z,45.95
2023-01-27T22:17:37.757Z,39.42
2023-01-27T22:22:39.352Z,42.63
2023-01-27T22:27:42.019Z,43.42
2023-01-27T22:32:44.735Z,36.58
2023-01-27T22:37:48.921Z,44.60
2023-01-27T22:42:50.909Z,40.47
2023-01-27T22:47:52.691Z,37.75
2023-01-27T22:52:54.290Z,40.70
2023-01-27T22:57:55.890Z,40.72
2023-01-27T23:02:57.482Z,40.28
2023-01-27T23:07:59.069Z,43.65
2023-01-27T23:13:01.058Z,42.28
2023-01-27T23:18:02.673Z,39.13
2023-01-27T23:23:04.274Z,41.33
2023-01-27T23:28:05.858Z,38.30
2023-01-27T23:33:07.464Z,45.67
2023-01-27T23:38:22.637Z,46.55
2023-01-27T23:43:31.462Z,43.60
2023-01-27T23:48:33.065Z,38.78
2023-01-27T23:53:34.831Z,38.27
2023-01-27T23:58:36.434Z,28.77
